sensor_id;sensor_type;location;lat;lon;timestamp;temperature;humidity
33717;DHT22;20046;50.746;7.072;2022-07-03T00:00:26;18.00;96.60
33717;DHT22;20046;50.746;7.072;2022-07-03T00:02:52;18.00;97.00
33717;DHT22;20046;50.746;7.072;2022-07-03T00:05:18;18.00;97.50
33717;DHT22;20046;50.746;7.072;2022-07-03T00:07:43;17.90;97.80
33717;DHT22;20046;50.746;7.072;2022-07-03T00:10:09;17.90;98.20
33717;DHT22;20046;50.746;7.072;2022-07-03T00:12:35;17.80;98.70
33717;DHT22;20046;50.746;7.072;2022-07-03T00:15:01;17.90;99.00
33717;DHT22;20046;50.746;7.072;2022-07-03T00:17:27;17.90;99.20
33717;DHT22;20046;50.746;7.072;2022-07-03T00:19:54;17.80;99.50
33717;DHT22;20046;50.746;7.072;2022-07-03T00:22:19;17.80;99.80
33717;DHT22;20046;50.746;7.072;2022-07-03T00:24:55;17.80;99.90
33717;DHT22;20046;50.746;7.072;2022-07-03T00:27:26;17.80;99.90
33717;DHT22;20046;50.746;7.072;2022-07-03T00:29:55;17.70;99.90
33717;DHT22;20046;50.746;7.072;2022-07-03T00:32:23;17.70;99.90
33717;DHT22;20046;50.746;7.072;2022-07-03T00:34:54;17.70;99.90
33717;DHT22;20046;50.746;7.072;2022-07-03T00:37:20;17.60;99.90
33717;DHT22;20046;50.746;7.072;2022-07-03T00:39:46;17.50;99.90
33717;DHT22;20046;50.746;7.072;2022-07-03T00:42:14;17.50;99.90
33717;DHT22;20046;50.746;7.072;2022-07-03T00:44:50;17.40;99.90
33717;DHT22;20046;50.746;7.072;2022-07-03T00:47:18;17.40;99.90
33717;DHT22;20046;50.746;7.072;2022-07-03T00:49:46;17.30;99.90
33717;DHT22;20046;50.746;7.072;2022-07-03T00:52:13;17.30;99.90
33717;DHT22;20046;50.746;7.072;2022-07-03T00:54:43;17.30;99.90
33717;DHT22;20046;50.746;7.072;2022-07-03T00:57:13;17.20;99.90
33717;DHT22;20046;50.746;7.072;2022-07-03T00:59:39;17.20;99.90
33717;DHT22;20046;50.746;7.072;2022-07-03T01:02:06;17.20;99.90
33717;DHT22;20046;50.746;7.072;2022-07-03T01:04:57;17.10;99.90
33717;DHT22;20046;50.746;7.072;2022-07-03T01:13:00;17.00;99.90
33717;DHT22;20046;50.746;7.072;2022-07-03T01:15:36;17.00;99.90
33717;DHT22;20046;50.746;7.072;2022-07-03T01:21:18;16.90;99.90
33717;DHT22;20046;50.746;7.072;2022-07-03T01:24:17;16.90;99.90
33717;DHT22;20046;50.746;7.072;2022-07-03T01:26:51;16.90;99.90
33717;DHT22;20046;50.746;7.072;2022-07-03T01:29:28;16.80;99.90
33717;DHT22;20046;50.746;7.072;2022-07-03T01:31:55;16.80;99.90
33717;DHT22;20046;50.746;7.072;2022-07-03T01:34:22;16.80;99.90
33717;DHT22;20046;50.746;7.072;2022-07-03T01:36:53;16.80;99.90
33717;DHT22;20046;50.746;7.072;2022-07-03T01:39:21;16.80;99.90
33717;DHT22;20046;50.746;7.072;2022-07-03T01:41:48;16.70;99.90
33717;DHT22;20046;50.746;7.072;2022-07-03T01:44:16;16.70;99.90
33717;DHT22;20046;50.746;7.072;2022-07-03T01:46:41;16.70;99.90
33717;DHT22;20046;50.746;7.072;2022-07-03T01:49:13;16.60;99.90
33717;DHT22;20046;50.746;7.072;2022-07-03T01:51:41;16.70;99.90
33717;DHT22;20046;50.746;7.072;2022-07-03T01:54:12;16.70;99.90
33717;DHT22;20046;50.746;7.072;2022-07-03T01:56:38;16.60;99.90
33717;DHT22;20046;50.746;7.072;2022-07-03T01:59:03;16.60;99.90
33717;DHT22;20046;50.746;7.072;2022-07-03T02:01:44;16.50;99.90
33717;DHT22;20046;50.746;7.072;2022-07-03T02:07:14;16.50;99.90
33717;DHT22;20046;50.746;7.072;2022-07-03T02:10:00;16.50;99.90
33717;DHT22;20046;50.746;7.072;2022-07-03T02:12:30;16.50;99.90
33717;DHT22;20046;50.746;7.072;2022-07-03T02:15:06;16.50;99.90
33717;DHT22;20046;50.746;7.072;2022-07-03T02:17:43;16.50;99.90
33717;DHT22;20046;50.746;7.072;2022-07-03T02:20:09;16.50;99.90
33717;DHT22;20046;50.746;7.072;2022-07-03T02:22:44;16.50;99.90
33717;DHT22;20046;50.746;7.072;2022-07-03T02:25:27;16.50;99.90
33717;DHT22;20046;50.746;7.072;2022-07-03T02:30:24;16.50;99.90
33717;DHT22;20046;50.746;7.072;2022-07-03T02:32:51;16.50;99.90
33717;DHT22;20046;50.746;7.072;2022-07-03T02:35:29;16.50;99.90
33717;DHT22;20046;50.746;7.072;2022-07-03T02:38:10;16.40;99.90
33717;DHT22;20046;50.746;7.072;2022-07-03T02:40:43;16.40;99.90
33717;DHT22;20046;50.746;7.072;2022-07-03T02:48:34;16.40;99.90
33717;DHT22;20046;50.746;7.072;2022-07-03T02:51:13;16.40;99.90
33717;DHT22;20046;50.746;7.072;2022-07-03T02:53:46;16.50;99.90
33717;DHT22;20046;50.746;7.072;2022-07-03T02:56:39;16.50;99.90
33717;DHT22;20046;50.746;7.072;2022-07-03T02:59:44;16.40;99.90
33717;DHT22;20046;50.746;7.072;2022-07-03T03:04:41;16.30;99.90
33717;DHT22;20046;50.746;7.072;2022-07-03T03:07:14;16.20;99.90
33717;DHT22;20046;50.746;7.072;2022-07-03T03:09:43;16.10;99.90
33717;DHT22;20046;50.746;7.072;2022-07-03T03:12:10;16.10;99.90
33717;DHT22;20046;50.746;7.072;2022-07-03T03:14:41;16.00;99.90
33717;DHT22;20046;50.746;7.072;2022-07-03T03:17:09;16.00;99.90
33717;DHT22;20046;50.746;7.072;2022-07-03T03:19:40;15.90;99.90
33717;DHT22;20046;50.746;7.072;2022-07-03T03:25:01;15.80;99.90
33717;DHT22;20046;50.746;7.072;2022-07-03T03:27:28;15.70;99.90
33717;DHT22;20046;50.746;7.072;2022-07-03T03:29:54;15.70;99.90
33717;DHT22;20046;50.746;7.072;2022-07-03T03:32:20;15.70;99.90
33717;DHT22;20046;50.746;7.072;2022-07-03T03:34:47;15.70;99.90
33717;DHT22;20046;50.746;7.072;2022-07-03T03:37:13;15.70;99.90
33717;DHT22;20046;50.746;7.072;2022-07-03T03:39:39;15.70;99.90
33717;DHT22;20046;50.746;7.072;2022-07-03T03:42:05;15.70;99.90
33717;DHT22;20046;50.746;7.072;2022-07-03T03:44:31;15.70;99.90
33717;DHT22;20046;50.746;7.072;2022-07-03T03:46:56;15.60;99.90
33717;DHT22;20046;50.746;7.072;2022-07-03T03:49:22;15.70;99.90
33717;DHT22;20046;50.746;7.072;2022-07-03T03:51:48;15.60;99.90
33717;DHT22;20046;50.746;7.072;2022-07-03T03:54:14;15.70;99.90
33717;DHT22;20046;50.746;7.072;2022-07-03T03:56:39;15.60;99.90
33717;DHT22;20046;50.746;7.072;2022-07-03T03:59:05;15.70;99.90
33717;DHT22;20046;50.746;7.072;2022-07-03T04:01:31;15.70;99.90
33717;DHT22;20046;50.746;7.072;2022-07-03T04:03:56;15.70;99.90
33717;DHT22;20046;50.746;7.072;2022-07-03T04:06:25;15.70;99.90
33717;DHT22;20046;50.746;7.072;2022-07-03T04:08:51;15.70;99.90
33717;DHT22;20046;50.746;7.072;2022-07-03T04:11:16;15.80;99.90
33717;DHT22;20046;50.746;7.072;2022-07-03T04:13:42;15.90;99.90
33717;DHT22;20046;50.746;7.072;2022-07-03T04:16:08;16.00;99.90
33717;DHT22;20046;50.746;7.072;2022-07-03T04:18:33;16.00;99.90
33717;DHT22;20046;50.746;7.072;2022-07-03T04:21:00;16.10;99.90
33717;DHT22;20046;50.746;7.072;2022-07-03T04:23:25;16.20;99.90
33717;DHT22;20046;50.746;7.072;2022-07-03T04:25:51;16.20;99.90
33717;DHT22;20046;50.746;7.072;2022-07-03T04:28:17;16.30;99.90
33717;DHT22;20046;50.746;7.072;2022-07-03T04:30:42;16.30;99.90
33717;DHT22;20046;50.746;7.072;2022-07-03T04:33:08;16.30;99.90
33717;DHT22;20046;50.746;7.072;2022-07-03T04:35:34;16.30;99.90
33717;DHT22;20046;50.746;7.072;2022-07-03T04:37:59;16.40;99.90
33717;DHT22;20046;50.746;7.072;2022-07-03T04:40:25;16.40;99.90
33717;DHT22;20046;50.746;7.072;2022-07-03T04:42:51;16.40;99.90
33717;DHT22;20046;50.746;7.072;2022-07-03T04:45:16;16.50;99.90
33717;DHT22;20046;50.746;7.072;2022-07-03T04:47:42;16.60;99.90
33717;DHT22;20046;50.746;7.072;2022-07-03T04:50:07;16.60;99.90
33717;DHT22;20046;50.746;7.072;2022-07-03T04:52:33;16.70;99.90
33717;DHT22;20046;50.746;7.072;2022-07-03T04:54:59;16.80;99.90
33717;DHT22;20046;50.746;7.072;2022-07-03T04:57:24;16.90;99.90
33717;DHT22;20046;50.746;7.072;2022-07-03T04:59:50;17.00;99.90
33717;DHT22;20046;50.746;7.072;2022-07-03T05:02:15;17.00;99.90
33717;DHT22;20046;50.746;7.072;2022-07-03T05:04:41;17.10;99.90
33717;DHT22;20046;50.746;7.072;2022-07-03T05:07:07;17.20;99.90
33717;DHT22;20046;50.746;7.072;2022-07-03T05:09:32;17.20;99.90
33717;DHT22;20046;50.746;7.072;2022-07-03T05:11:58;17.20;99.90
33717;DHT22;20046;50.746;7.072;2022-07-03T05:14:23;17.30;99.90
33717;DHT22;20046;50.746;7.072;2022-07-03T05:16:49;17.30;99.90
33717;DHT22;20046;50.746;7.072;2022-07-03T05:19:15;17.40;99.90
33717;DHT22;20046;50.746;7.072;2022-07-03T05:21:40;17.40;99.90
33717;DHT22;20046;50.746;7.072;2022-07-03T05:24:06;17.50;99.90
33717;DHT22;20046;50.746;7.072;2022-07-03T05:26:32;17.50;99.90
33717;DHT22;20046;50.746;7.072;2022-07-03T05:28:57;17.60;99.90
33717;DHT22;20046;50.746;7.072;2022-07-03T05:31:23;17.70;99.90
33717;DHT22;20046;50.746;7.072;2022-07-03T05:33:49;17.70;99.90
33717;DHT22;20046;50.746;7.072;2022-07-03T05:36:14;17.80;99.90
33717;DHT22;20046;50.746;7.072;2022-07-03T05:38:40;17.90;99.90
33717;DHT22;20046;50.746;7.072;2022-07-03T05:41:24;17.90;99.90
33717;DHT22;20046;50.746;7.072;2022-07-03T05:43:49;18.00;99.90
33717;DHT22;20046;50.746;7.072;2022-07-03T05:46:15;18.10;99.90
33717;DHT22;20046;50.746;7.072;2022-07-03T05:48:41;18.10;99.90
33717;DHT22;20046;50.746;7.072;2022-07-03T05:51:07;18.20;99.90
33717;DHT22;20046;50.746;7.072;2022-07-03T05:53:32;18.20;99.90
33717;DHT22;20046;50.746;7.072;2022-07-03T05:55:58;18.30;99.90
33717;DHT22;20046;50.746;7.072;2022-07-03T05:58:24;18.40;99.90
33717;DHT22;20046;50.746;7.072;2022-07-03T06:00:50;18.50;99.90
33717;DHT22;20046;50.746;7.072;2022-07-03T06:03:15;18.60;99.90
33717;DHT22;20046;50.746;7.072;2022-07-03T06:05:41;18.70;99.90
33717;DHT22;20046;50.746;7.072;2022-07-03T06:08:07;18.80;99.90
33717;DHT22;20046;50.746;7.072;2022-07-03T06:10:33;18.80;99.90
33717;DHT22;20046;50.746;7.072;2022-07-03T06:12:59;19.00;99.90
33717;DHT22;20046;50.746;7.072;2022-07-03T06:15:25;19.00;99.90
33717;DHT22;20046;50.746;7.072;2022-07-03T06:17:50;19.10;99.90
33717;DHT22;20046;50.746;7.072;2022-07-03T06:20:16;19.10;99.90
33717;DHT22;20046;50.746;7.072;2022-07-03T06:22:42;19.30;99.90
33717;DHT22;20046;50.746;7.072;2022-07-03T06:25:08;19.30;99.90
33717;DHT22;20046;50.746;7.072;2022-07-03T06:27:34;19.40;99.90
33717;DHT22;20046;50.746;7.072;2022-07-03T06:29:59;19.50;99.90
33717;DHT22;20046;50.746;7.072;2022-07-03T06:32:25;19.50;99.90
33717;DHT22;20046;50.746;7.072;2022-07-03T06:34:51;19.60;99.90
33717;DHT22;20046;50.746;7.072;2022-07-03T06:37:18;19.60;99.90
33717;DHT22;20046;50.746;7.072;2022-07-03T06:39:44;19.70;99.90
33717;DHT22;20046;50.746;7.072;2022-07-03T06:42:09;19.70;99.90
33717;DHT22;20046;50.746;7.072;2022-07-03T06:44:35;19.80;99.90
33717;DHT22;20046;50.746;7.072;2022-07-03T06:47:00;19.90;99.90
33717;DHT22;20046;50.746;7.072;2022-07-03T06:49:29;20.00;99.90
33717;DHT22;20046;50.746;7.072;2022-07-03T06:51:55;20.00;99.90
33717;DHT22;20046;50.746;7.072;2022-07-03T06:54:20;20.10;99.90
33717;DHT22;20046;50.746;7.072;2022-07-03T06:56:46;20.20;99.90
33717;DHT22;20046;50.746;7.072;2022-07-03T06:59:12;20.30;99.90
33717;DHT22;20046;50.746;7.072;2022-07-03T07:01:37;20.40;99.90
33717;DHT22;20046;50.746;7.072;2022-07-03T07:04:03;20.50;99.90
33717;DHT22;20046;50.746;7.072;2022-07-03T07:06:29;20.60;99.90
33717;DHT22;20046;50.746;7.072;2022-07-03T07:08:55;20.70;99.90
33717;DHT22;20046;50.746;7.072;2022-07-03T07:11:20;20.90;99.90
33717;DHT22;20046;50.746;7.072;2022-07-03T07:13:46;21.00;99.90
33717;DHT22;20046;50.746;7.072;2022-07-03T07:16:11;21.00;99.90
33717;DHT22;20046;50.746;7.072;2022-07-03T07:18:40;21.10;99.90
33717;DHT22;20046;50.746;7.072;2022-07-03T07:21:06;21.20;99.90
33717;DHT22;20046;50.746;7.072;2022-07-03T07:23:32;21.20;99.90
33717;DHT22;20046;50.746;7.072;2022-07-03T07:25:57;21.40;99.90
33717;DHT22;20046;50.746;7.072;2022-07-03T07:28:23;21.50;99.90
33717;DHT22;20046;50.746;7.072;2022-07-03T07:30:49;21.50;99.90
33717;DHT22;20046;50.746;7.072;2022-07-03T07:33:14;21.50;99.90
33717;DHT22;20046;50.746;7.072;2022-07-03T07:35:40;21.60;99.90
33717;DHT22;20046;50.746;7.072;2022-07-03T07:38:06;21.60;99.90
33717;DHT22;20046;50.746;7.072;2022-07-03T07:40:31;21.70;99.90
33717;DHT22;20046;50.746;7.072;2022-07-03T07:42:57;21.90;99.90
33717;DHT22;20046;50.746;7.072;2022-07-03T07:45:22;22.10;99.90
33717;DHT22;20046;50.746;7.072;2022-07-03T07:47:48;22.40;99.90
33717;DHT22;20046;50.746;7.072;2022-07-03T07:50:14;22.90;99.90
33717;DHT22;20046;50.746;7.072;2022-07-03T07:52:40;23.60;99.90
33717;DHT22;20046;50.746;7.072;2022-07-03T07:55:06;24.20;99.90
33717;DHT22;20046;50.746;7.072;2022-07-03T07:57:36;24.70;99.90
33717;DHT22;20046;50.746;7.072;2022-07-03T08:00:14;25.10;99.90
33717;DHT22;20046;50.746;7.072;2022-07-03T08:02:41;25.60;99.90
33717;DHT22;20046;50.746;7.072;2022-07-03T08:05:25;26.10;99.40
33717;DHT22;20046;50.746;7.072;2022-07-03T08:08:10;26.40;98.00
33717;DHT22;20046;50.746;7.072;2022-07-03T08:10:36;26.70;97.00
33717;DHT22;20046;50.746;7.072;2022-07-03T08:13:03;26.80;96.60
33717;DHT22;20046;50.746;7.072;2022-07-03T08:15:28;27.10;95.50
33717;DHT22;20046;50.746;7.072;2022-07-03T08:17:54;27.40;95.20
33717;DHT22;20046;50.746;7.072;2022-07-03T08:20:20;27.70;94.10
33717;DHT22;20046;50.746;7.072;2022-07-03T08:22:45;27.80;93.50
33717;DHT22;20046;50.746;7.072;2022-07-03T08:25:11;28.10;92.30
33717;DHT22;20046;50.746;7.072;2022-07-03T08:27:37;28.30;92.20
33717;DHT22;20046;50.746;7.072;2022-07-03T08:30:03;28.70;90.80
33717;DHT22;20046;50.746;7.072;2022-07-03T08:32:29;28.90;89.90
33717;DHT22;20046;50.746;7.072;2022-07-03T08:34:54;29.10;88.20
33717;DHT22;20046;50.746;7.072;2022-07-03T08:37:20;29.40;86.90
33717;DHT22;20046;50.746;7.072;2022-07-03T08:39:45;29.60;86.40
33717;DHT22;20046;50.746;7.072;2022-07-03T08:42:11;30.10;84.30
33717;DHT22;20046;50.746;7.072;2022-07-03T08:44:39;30.40;84.20
33717;DHT22;20046;50.746;7.072;2022-07-03T08:47:07;30.50;82.40
33717;DHT22;20046;50.746;7.072;2022-07-03T08:49:34;30.70;80.30
33717;DHT22;20046;50.746;7.072;2022-07-03T08:52:00;31.00;79.10
33717;DHT22;20046;50.746;7.072;2022-07-03T08:54:26;31.30;78.50
33717;DHT22;20046;50.746;7.072;2022-07-03T08:56:52;31.50;77.40
33717;DHT22;20046;50.746;7.072;2022-07-03T08:59:19;31.50;77.50
33717;DHT22;20046;50.746;7.072;2022-07-03T09:01:46;31.60;76.30
33717;DHT22;20046;50.746;7.072;2022-07-03T09:04:12;31.80;74.60
33717;DHT22;20046;50.746;7.072;2022-07-03T09:06:42;32.20;73.10
33717;DHT22;20046;50.746;7.072;2022-07-03T09:09:08;32.40;72.30
33717;DHT22;20046;50.746;7.072;2022-07-03T09:11:38;32.40;70.40
33717;DHT22;20046;50.746;7.072;2022-07-03T09:14:04;32.40;69.00
33717;DHT22;20046;50.746;7.072;2022-07-03T09:16:34;32.70;68.50
33717;DHT22;20046;50.746;7.072;2022-07-03T09:19:00;32.90;68.50
33717;DHT22;20046;50.746;7.072;2022-07-03T09:21:38;33.00;68.10
33717;DHT22;20046;50.746;7.072;2022-07-03T09:24:05;33.20;67.30
33717;DHT22;20046;50.746;7.072;2022-07-03T09:26:32;33.10;66.80
33717;DHT22;20046;50.746;7.072;2022-07-03T09:28:59;33.20;68.00
33717;DHT22;20046;50.746;7.072;2022-07-03T09:31:26;33.40;67.40
33717;DHT22;20046;50.746;7.072;2022-07-03T09:34:04;33.30;66.60
33717;DHT22;20046;50.746;7.072;2022-07-03T09:36:50;33.40;66.00
33717;DHT22;20046;50.746;7.072;2022-07-03T09:39:29;33.70;64.30
33717;DHT22;20046;50.746;7.072;2022-07-03T09:42:09;33.90;64.00
33717;DHT22;20046;50.746;7.072;2022-07-03T09:44:39;33.90;64.30
33717;DHT22;20046;50.746;7.072;2022-07-03T09:52:46;34.20;63.30
33717;DHT22;20046;50.746;7.072;2022-07-03T09:58:04;34.50;62.00
33717;DHT22;20046;50.746;7.072;2022-07-03T10:00:32;34.50;61.40
33717;DHT22;20046;50.746;7.072;2022-07-03T10:05:38;34.80;60.50
33717;DHT22;20046;50.746;7.072;2022-07-03T10:08:09;35.00;60.20
33717;DHT22;20046;50.746;7.072;2022-07-03T10:10:41;34.70;59.30
33717;DHT22;20046;50.746;7.072;2022-07-03T10:13:07;34.10;59.70
33717;DHT22;20046;50.746;7.072;2022-07-03T10:15:37;34.20;60.40
33717;DHT22;20046;50.746;7.072;2022-07-03T10:18:08;34.30;59.30
33717;DHT22;20046;50.746;7.072;2022-07-03T10:20:48;34.30;59.50
33717;DHT22;20046;50.746;7.072;2022-07-03T10:23:20;34.30;60.90
33717;DHT22;20046;50.746;7.072;2022-07-03T10:25:46;34.40;59.70
33717;DHT22;20046;50.746;7.072;2022-07-03T10:28:13;34.60;59.50
33717;DHT22;20046;50.746;7.072;2022-07-03T10:30:40;35.10;58.90
33717;DHT22;20046;50.746;7.072;2022-07-03T10:33:08;35.30;58.20
33717;DHT22;20046;50.746;7.072;2022-07-03T10:35:36;35.50;58.10
33717;DHT22;20046;50.746;7.072;2022-07-03T10:43:39;36.00;56.20
33717;DHT22;20046;50.746;7.072;2022-07-03T10:46:24;36.10;56.60
33717;DHT22;20046;50.746;7.072;2022-07-03T10:51:30;36.10;55.90
33717;DHT22;20046;50.746;7.072;2022-07-03T11:07:29;37.00;51.90
33717;DHT22;20046;50.746;7.072;2022-07-03T11:25:46;37.70;50.30
33717;DHT22;20046;50.746;7.072;2022-07-03T11:34:00;38.80;49.90
33717;DHT22;20046;50.746;7.072;2022-07-03T11:36:27;39.10;49.00
33717;DHT22;20046;50.746;7.072;2022-07-03T11:41:18;39.20;48.20
33717;DHT22;20046;50.746;7.072;2022-07-03T11:43:53;38.80;48.20
33717;DHT22;20046;50.746;7.072;2022-07-03T11:46:21;38.60;49.30
33717;DHT22;20046;50.746;7.072;2022-07-03T11:48:47;38.60;49.40
33717;DHT22;20046;50.746;7.072;2022-07-03T11:51:14;38.70;48.30
33717;DHT22;20046;50.746;7.072;2022-07-03T11:53:40;39.00;48.70
33717;DHT22;20046;50.746;7.072;2022-07-03T11:56:10;39.40;48.50
33717;DHT22;20046;50.746;7.072;2022-07-03T11:58:56;39.00;47.10
33717;DHT22;20046;50.746;7.072;2022-07-03T12:06:18;39.70;46.70
33717;DHT22;20046;50.746;7.072;2022-07-03T12:08:43;39.80;46.00
33717;DHT22;20046;50.746;7.072;2022-07-03T12:11:15;39.90;45.80
33717;DHT22;20046;50.746;7.072;2022-07-03T12:13:42;40.20;45.60
33717;DHT22;20046;50.746;7.072;2022-07-03T12:16:14;40.50;45.30
33717;DHT22;20046;50.746;7.072;2022-07-03T12:18:53;41.30;45.40
33717;DHT22;20046;50.746;7.072;2022-07-03T12:21:21;40.80;45.20
33717;DHT22;20046;50.746;7.072;2022-07-03T12:23:55;38.50;45.50
33717;DHT22;20046;50.746;7.072;2022-07-03T12:26:32;36.40;47.90
33717;DHT22;20046;50.746;7.072;2022-07-03T12:28:59;35.90;49.40
33717;DHT22;20046;50.746;7.072;2022-07-03T12:31:25;36.70;48.50
33717;DHT22;20046;50.746;7.072;2022-07-03T12:33:52;37.60;48.90
33717;DHT22;20046;50.746;7.072;2022-07-03T12:36:18;38.90;48.00
33717;DHT22;20046;50.746;7.072;2022-07-03T12:38:55;39.90;45.50
33717;DHT22;20046;50.746;7.072;2022-07-03T12:41:23;40.30;44.40
33717;DHT22;20046;50.746;7.072;2022-07-03T12:43:50;40.20;44.90
33717;DHT22;20046;50.746;7.072;2022-07-03T12:48:55;41.30;43.70
33717;DHT22;20046;50.746;7.072;2022-07-03T12:51:48;41.90;43.30
33717;DHT22;20046;50.746;7.072;2022-07-03T12:57:10;37.60;45.80
33717;DHT22;20046;50.746;7.072;2022-07-03T13:02:35;33.70;51.80
33717;DHT22;20046;50.746;7.072;2022-07-03T13:05:19;32.40;53.30
33717;DHT22;20046;50.746;7.072;2022-07-03T13:07:47;31.40;55.20
33717;DHT22;20046;50.746;7.072;2022-07-03T13:10:17;32.30;55.70
33717;DHT22;20046;50.746;7.072;2022-07-03T13:12:54;32.30;54.20
33717;DHT22;20046;50.746;7.072;2022-07-03T13:15:24;31.60;56.50
33717;DHT22;20046;50.746;7.072;2022-07-03T13:20:21;30.60;57.20
33717;DHT22;20046;50.746;7.072;2022-07-03T13:22:54;30.20;57.00
33717;DHT22;20046;50.746;7.072;2022-07-03T13:25:20;29.70;57.90
33717;DHT22;20046;50.746;7.072;2022-07-03T13:27:46;29.30;59.60
33717;DHT22;20046;50.746;7.072;2022-07-03T13:30:13;29.00;59.50
33717;DHT22;20046;50.746;7.072;2022-07-03T13:32:39;28.80;60.40
33717;DHT22;20046;50.746;7.072;2022-07-03T13:35:05;28.80;61.70
33717;DHT22;20046;50.746;7.072;2022-07-03T13:37:31;28.90;61.10
33717;DHT22;20046;50.746;7.072;2022-07-03T13:39:56;28.90;60.90
33717;DHT22;20046;50.746;7.072;2022-07-03T13:42:22;28.80;60.80
33717;DHT22;20046;50.746;7.072;2022-07-03T13:44:48;29.00;61.20
33717;DHT22;20046;50.746;7.072;2022-07-03T13:47:15;29.50;60.50
33717;DHT22;20046;50.746;7.072;2022-07-03T13:49:41;29.70;60.40
33717;DHT22;20046;50.746;7.072;2022-07-03T13:52:07;29.90;60.90
33717;DHT22;20046;50.746;7.072;2022-07-03T13:54:33;30.30;60.40
33717;DHT22;20046;50.746;7.072;2022-07-03T13:56:59;30.30;59.50
33717;DHT22;20046;50.746;7.072;2022-07-03T13:59:24;30.40;59.20
33717;DHT22;20046;50.746;7.072;2022-07-03T14:01:50;30.20;59.80
33717;DHT22;20046;50.746;7.072;2022-07-03T14:04:16;30.00;59.60
33717;DHT22;20046;50.746;7.072;2022-07-03T14:06:41;29.90;59.80
33717;DHT22;20046;50.746;7.072;2022-07-03T14:09:07;30.00;60.50
33717;DHT22;20046;50.746;7.072;2022-07-03T14:11:33;30.00;59.70
33717;DHT22;20046;50.746;7.072;2022-07-03T14:13:58;30.20;60.10
33717;DHT22;20046;50.746;7.072;2022-07-03T14:16:24;30.10;59.20
33717;DHT22;20046;50.746;7.072;2022-07-03T14:18:50;29.90;60.00
33717;DHT22;20046;50.746;7.072;2022-07-03T14:21:15;29.80;60.70
33717;DHT22;20046;50.746;7.072;2022-07-03T14:23:41;29.70;60.50
33717;DHT22;20046;50.746;7.072;2022-07-03T14:26:06;29.60;60.40
33717;DHT22;20046;50.746;7.072;2022-07-03T14:28:32;29.60;60.60
33717;DHT22;20046;50.746;7.072;2022-07-03T14:31:17;29.70;61.10
33717;DHT22;20046;50.746;7.072;2022-07-03T14:34:01;29.70;60.80
33717;DHT22;20046;50.746;7.072;2022-07-03T14:36:27;29.70;60.40
33717;DHT22;20046;50.746;7.072;2022-07-03T14:38:53;29.60;61.10
33717;DHT22;20046;50.746;7.072;2022-07-03T14:41:19;29.50;61.20
33717;DHT22;20046;50.746;7.072;2022-07-03T14:43:44;29.40;60.80
33717;DHT22;20046;50.746;7.072;2022-07-03T14:46:10;29.10;61.50
33717;DHT22;20046;50.746;7.072;2022-07-03T14:48:35;29.00;62.10
33717;DHT22;20046;50.746;7.072;2022-07-03T14:51:01;29.10;61.70
33717;DHT22;20046;50.746;7.072;2022-07-03T14:53:27;29.20;61.40
33717;DHT22;20046;50.746;7.072;2022-07-03T14:55:53;29.20;61.60
33717;DHT22;20046;50.746;7.072;2022-07-03T14:58:21;29.20;61.40
33717;DHT22;20046;50.746;7.072;2022-07-03T15:00:51;29.20;61.30
33717;DHT22;20046;50.746;7.072;2022-07-03T15:03:31;29.30;61.80
33717;DHT22;20046;50.746;7.072;2022-07-03T15:06:01;29.30;61.70
33717;DHT22;20046;50.746;7.072;2022-07-03T15:13:28;29.30;61.60
33717;DHT22;20046;50.746;7.072;2022-07-03T15:15:56;29.30;61.50
33717;DHT22;20046;50.746;7.072;2022-07-03T15:18:22;29.40;61.90
33717;DHT22;20046;50.746;7.072;2022-07-03T15:20:50;29.30;61.30
33717;DHT22;20046;50.746;7.072;2022-07-03T15:23:17;29.20;61.40
33717;DHT22;20046;50.746;7.072;2022-07-03T15:25:45;29.10;61.90
33717;DHT22;20046;50.746;7.072;2022-07-03T15:28:11;28.90;62.00
33717;DHT22;20046;50.746;7.072;2022-07-03T15:30:38;28.70;62.50
33717;DHT22;20046;50.746;7.072;2022-07-03T15:33:03;28.40;63.20
33717;DHT22;20046;50.746;7.072;2022-07-03T15:35:31;28.00;63.50
33717;DHT22;20046;50.746;7.072;2022-07-03T15:38:13;27.80;63.80
33717;DHT22;20046;50.746;7.072;2022-07-03T15:43:07;27.20;65.10
33717;DHT22;20046;50.746;7.072;2022-07-03T15:51:52;26.70;67.00
33717;DHT22;20046;50.746;7.072;2022-07-03T15:54:30;26.70;67.10
33717;DHT22;20046;50.746;7.072;2022-07-03T15:56:58;26.50;66.10
33717;DHT22;20046;50.746;7.072;2022-07-03T15:59:29;26.50;67.20
33717;DHT22;20046;50.746;7.072;2022-07-03T16:01:58;26.40;66.50
33717;DHT22;20046;50.746;7.072;2022-07-03T16:05:09;26.40;67.20
33717;DHT22;20046;50.746;7.072;2022-07-03T16:07:38;26.50;67.60
33717;DHT22;20046;50.746;7.072;2022-07-03T16:10:06;26.70;66.40
33717;DHT22;20046;50.746;7.072;2022-07-03T16:12:32;26.80;66.50
33717;DHT22;20046;50.746;7.072;2022-07-03T16:14:59;26.60;66.30
33717;DHT22;20046;50.746;7.072;2022-07-03T16:17:26;26.40;66.90
33717;DHT22;20046;50.746;7.072;2022-07-03T16:19:52;26.30;66.90
33717;DHT22;20046;50.746;7.072;2022-07-03T16:22:18;26.20;66.70
33717;DHT22;20046;50.746;7.072;2022-07-03T16:24:46;26.20;67.00
33717;DHT22;20046;50.746;7.072;2022-07-03T16:27:13;26.30;66.80
33717;DHT22;20046;50.746;7.072;2022-07-03T16:29:40;26.30;66.50
33717;DHT22;20046;50.746;7.072;2022-07-03T16:32:11;26.40;66.70
33717;DHT22;20046;50.746;7.072;2022-07-03T16:40:01;26.50;65.80
33717;DHT22;20046;50.746;7.072;2022-07-03T16:42:30;26.50;66.20
33717;DHT22;20046;50.746;7.072;2022-07-03T16:45:03;26.40;65.90
33717;DHT22;20046;50.746;7.072;2022-07-03T16:47:30;26.20;66.40
33717;DHT22;20046;50.746;7.072;2022-07-03T16:49:56;25.90;66.70
33717;DHT22;20046;50.746;7.072;2022-07-03T16:52:25;25.70;67.20
33717;DHT22;20046;50.746;7.072;2022-07-03T16:54:51;25.70;67.30
33717;DHT22;20046;50.746;7.072;2022-07-03T16:57:17;25.80;67.50
33717;DHT22;20046;50.746;7.072;2022-07-03T16:59:44;25.80;67.70
33717;DHT22;20046;50.746;7.072;2022-07-03T17:02:14;25.80;67.10
33717;DHT22;20046;50.746;7.072;2022-07-03T17:04:42;25.80;67.20
33717;DHT22;20046;50.746;7.072;2022-07-03T17:07:11;25.80;67.00
33717;DHT22;20046;50.746;7.072;2022-07-03T17:09:38;25.70;67.40
33717;DHT22;20046;50.746;7.072;2022-07-03T17:12:04;25.70;67.70
33717;DHT22;20046;50.746;7.072;2022-07-03T17:14:31;25.50;67.60
33717;DHT22;20046;50.746;7.072;2022-07-03T17:17:01;25.40;68.00
33717;DHT22;20046;50.746;7.072;2022-07-03T17:19:31;25.30;68.50
33717;DHT22;20046;50.746;7.072;2022-07-03T17:21:57;25.20;68.60
33717;DHT22;20046;50.746;7.072;2022-07-03T17:24:22;25.10;69.10
33717;DHT22;20046;50.746;7.072;2022-07-03T17:26:53;25.00;68.80
33717;DHT22;20046;50.746;7.072;2022-07-03T17:32:05;24.80;69.60
33717;DHT22;20046;50.746;7.072;2022-07-03T17:34:31;24.60;69.50
33717;DHT22;20046;50.746;7.072;2022-07-03T17:36:58;24.40;69.60